Time;durP1;ratioP1;P1;durP2;ratioP2;P2;SDS_P1;SDS_P2;PMS_P1;PMS_P2;Temp;Humidity;BMP_temperature;BMP_pressure;BME280_temperature;BME280_humidity;BME280_pressure;Samples;Min_cycle;Max_cycle;Signal;HPM_P1;HPM_P2
2022/07/14 00:06:31;;;;;;;4.90;3.00;;;;;;;18.62;51.72;98552.43;433960;1268;108928;-42
2022/07/14 00:16:38;;;;;;;8.90;3.60;;;;;;;18.61;52.27;98546.28;434013;1266;108777;-41
2022/07/14 00:26:45;;;;;;;8.50;4.00;;;;;;;18.78;52.62;98535.25;434183;1268;95876;-45
2022/07/14 00:36:52;;;;;;;5.60;3.20;;;;;;;19.05;52.65;98530.01;433983;1267;109183;-40
2022/07/14 00:46:59;;;;;;;6.50;3.90;;;;;;;19.27;52.41;98530.04;433873;1267;108600;-42
2022/07/14 00:57:06;;;;;;;10.30;4.00;;;;;;;19.25;52.58;98525.14;434137;1266;109209;-41
2022/07/14 01:07:14;;;;;;;5.30;4.20;;;;;;;19.22;52.56;98521.53;434031;1268;96144;-43
2022/07/14 01:17:21;;;;;;;6.80;4.10;;;;;;;19.24;52.94;98521.99;433896;1261;96223;-40
2022/07/14 01:27:29;;;;;;;10.30;3.80;;;;;;;19.20;53.09;98522.10;432850;1270;111199;-42
2022/07/14 01:37:37;;;;;;;6.40;3.40;;;;;;;19.24;53.18;98501.31;432786;1270;108207;-41
2022/07/14 01:47:45;;;;;;;6.50;3.10;;;;;;;18.98;53.16;98483.63;432712;1270;98015;-44
2022/07/14 01:57:52;;;;;;;5.20;3.20;;;;;;;18.90;53.73;98491.65;432812;1270;111116;-41
2022/07/14 02:08:00;;;;;;;9.20;4.00;;;;;;;18.82;53.84;98488.77;432598;1270;109792;-43
2022/07/14 02:18:07;;;;;;;9.10;3.40;;;;;;;18.67;54.08;98477.90;432757;1270;97894;-42
2022/07/14 02:28:14;;;;;;;5.00;3.50;;;;;;;18.52;54.82;98478.26;432641;1270;111119;-41
2022/07/14 02:38:22;;;;;;;7.50;3.40;;;;;;;18.22;54.97;98487.30;432747;1270;109157;-42
2022/07/14 02:48:30;;;;;;;7.90;3.30;;;;;;;18.02;55.67;98473.62;432689;1270;97513;-43
2022/07/14 02:58:37;;;;;;;6.10;3.90;;;;;;;18.03;56.21;98470.08;432644;1270;111109;-41
2022/07/14 03:08:45;;;;;;;8.90;4.00;;;;;;;18.31;56.37;98464.71;432642;1270;108912;-41
2022/07/14 03:18:53;;;;;;;5.40;3.30;;;;;;;18.59;56.22;98469.67;432689;1270;96663;-42
2022/07/14 03:29:01;;;;;;;5.30;3.40;;;;;;;18.91;56.04;98471.77;432749;1270;111105;-45
2022/07/14 03:39:08;;;;;;;3.90;2.30;;;;;;;19.52;55.49;98478.01;432642;1270;108789;-47
2022/07/14 03:49:16;;;;;;;3.00;2.20;;;;;;;20.47;54.82;98488.52;432430;1271;97919;-45
2022/07/14 03:59:23;;;;;;;3.60;2.30;;;;;;;22.16;53.51;98480.22;433499;1267;111378;-40
2022/07/14 04:09:31;;;;;;;4.10;2.50;;;;;;;23.82;51.75;98488.05;433412;1266;109870;-45
2022/07/14 04:19:38;;;;;;;3.20;2.00;;;;;;;25.17;50.41;98489.05;433492;1267;97926;-41
2022/07/14 04:29:46;;;;;;;2.00;1.80;;;;;;;26.07;48.92;98494.98;433502;1267;108821;-41
2022/07/14 04:39:54;;;;;;;6.70;2.60;;;;;;;26.98;47.83;98492.73;433226;1269;97464;-41
2022/07/14 05:00:27;;;;;;;4.40;2.30;;;;;;;28.33;45.85;98496.75;433464;1267;108738;-41
2022/07/14 05:10:35;;;;;;;5.90;2.20;;;;;;;28.55;45.02;98505.91;433675;1267;96656;-43
2022/07/14 05:20:42;;;;;;;5.40;2.30;;;;;;;28.45;43.95;98516.16;433564;1267;111425;-43
2022/07/14 05:30:49;;;;;;;7.40;2.60;;;;;;;28.37;43.81;98531.56;433586;1267;108777;-44
2022/07/14 05:40:56;;;;;;;5.60;2.30;;;;;;;27.77;43.32;98533.59;433623;1267;97467;-42
2022/07/14 05:51:06;;;;;;;3.00;2.60;;;;;;;27.79;42.87;98549.16;433514;1267;111100;-42
2022/07/14 06:01:11;;;;;;;5.70;2.70;;;;;;;27.17;42.38;98545.89;433061;1269;108947;-44
2022/07/14 06:11:19;;;;;;;4.00;2.30;;;;;;;27.31;42.61;98549.59;433202;1269;97446;-43
2022/07/14 06:21:26;;;;;;;3.60;2.10;;;;;;;27.16;42.56;98549.58;433039;1269;109152;-43
2022/07/14 06:31:34;;;;;;;8.50;3.00;;;;;;;27.06;42.47;98539.81;433488;1267;97025;-43
2022/07/14 06:41:41;;;;;;;5.00;2.70;;;;;;;27.60;42.70;98542.31;433583;1267;111193;-43
2022/07/14 06:51:48;;;;;;;7.10;3.30;;;;;;;28.03;42.14;98562.23;433399;1267;111069;-43
2022/07/14 07:02:02;;;;;;;3.30;2.90;;;;;;;27.68;41.54;98566.11;433529;1267;96680;-46
2022/07/14 07:12:10;;;;;;;5.30;3.00;;;;;;;27.04;42.49;98576.10;433099;1269;110090;-45
2022/07/14 07:22:17;;;;;;;3.80;2.90;;;;;;;26.46;43.17;98584.14;433466;1267;109260;-42
2022/07/14 07:32:25;;;;;;;9.40;3.60;;;;;;;26.58;43.99;98585.89;433106;1270;97798;-41
2022/07/14 07:42:32;;;;;;;3.50;3.20;;;;;;;26.76;44.09;98581.93;433634;1267;111004;-42
2022/07/14 07:52:39;;;;;;;3.30;3.00;;;;;;;27.77;44.46;98584.92;432984;1268;108813;-45
2022/07/14 08:02:52;;;;;;;3.00;2.80;;;;;;;28.29;43.11;98589.64;432966;1269;97932;-43
2022/07/14 08:13:01;;;;;;;6.00;2.40;;;;;;;28.02;42.29;98590.86;433622;1267;110705;-42
2022/07/14 08:33:16;;;;;;;3.90;2.30;;;;;;;27.59;42.92;98578.92;433395;1267;96614;-46
2022/07/14 08:43:23;;;;;;;4.50;2.50;;;;;;;28.10;42.46;98574.46;433151;1267;573569;-47
2022/07/14 08:53:31;;;;;;;4.20;2.20;;;;;;;28.17;42.22;98575.38;432973;1269;108723;-43
2022/07/14 09:03:38;;;;;;;11.10;3.00;;;;;;;28.46;42.06;98570.27;433610;1267;96696;-41
2022/07/14 09:24:16;;;;;;;4.10;2.90;;;;;;;28.05;41.94;98588.11;433487;1267;96699;-42
2022/07/14 09:34:27;;;;;;;3.90;2.10;;;;;;;27.82;42.20;98587.59;433208;1269;111008;-44
2022/07/14 09:44:33;;;;;;;6.90;2.10;;;;;;;28.18;42.15;98589.23;433737;1267;107868;-45
2022/07/14 09:54:48;;;;;;;3.90;2.60;;;;;;;29.09;41.76;98574.48;433601;1267;97750;-43
2022/07/14 10:04:55;;;;;;;3.90;2.20;;;;;;;29.04;40.61;98575.77;433788;1266;111040;-46
2022/07/14 10:15:04;;;;;;;3.60;2.20;;;;;;;29.04;40.65;98573.23;433232;1270;108823;-41
2022/07/14 10:25:11;;;;;;;4.80;1.90;;;;;;;29.03;41.00;98556.55;433632;1267;97897;-44
2022/07/14 10:35:35;;;;;;;2.80;2.20;;;;;;;29.17;40.98;98547.56;433634;1267;110002;-42
2022/07/14 10:45:47;;;;;;;2.90;2.50;;;;;;;28.53;40.71;98545.98;433596;1267;108919;-41
2022/07/14 10:55:55;;;;;;;5.20;2.90;;;;;;;28.01;41.31;98544.34;433544;1267;97894;-41
2022/07/14 11:06:20;;;;;;;3.10;2.40;;;;;;;27.90;41.79;98546.44;433525;1267;110316;-46
2022/07/14 11:27:32;;;;;;;3.60;2.50;;;;;;;28.61;41.81;98537.41;433545;1267;97368;-43
2022/07/14 11:37:52;;;;;;;6.00;3.00;;;;;;;28.61;41.79;98535.05;433524;1268;110160;-44
2022/07/14 11:48:00;;;;;;;3.90;2.70;;;;;;;28.47;41.67;98529.88;433724;1268;107749;-41
2022/07/14 11:58:08;;;;;;;4.00;2.90;;;;;;;28.35;42.07;98521.58;433688;1267;97948;-41
2022/07/14 12:08:21;;;;;;;11.40;3.00;;;;;;;28.40;41.80;98518.59;433761;1267;111081;-41
2022/07/14 12:18:29;;;;;;;5.00;3.30;;;;;;;27.87;42.15;98517.85;433556;1268;108865;-41
2022/07/14 12:28:37;;;;;;;11.80;3.70;;;;;;;27.80;42.72;98509.38;433694;1268;97952;-46
2022/07/14 12:38:47;;;;;;;6.60;3.10;;;;;;;27.57;42.92;98501.16;433558;1268;108769;-42
2022/07/14 12:48:59;;;;;;;7.10;3.80;;;;;;;27.38;43.50;98498.83;433741;1268;97525;-45
2022/07/14 12:59:08;;;;;;;5.20;3.80;;;;;;;27.40;43.90;98490.83;433742;1268;110973;-43
2022/07/14 13:09:27;;;;;;;4.80;3.10;;;;;;;27.21;44.00;98479.26;433717;1267;108882;-43
2022/07/14 13:19:34;;;;;;;7.90;2.90;;;;;;;27.00;43.94;98468.21;433814;1268;96679;-46
2022/07/14 13:29:42;;;;;;;4.80;3.30;;;;;;;26.84;44.32;98461.69;433658;1268;110925;-43
2022/07/14 13:39:51;;;;;;;6.20;4.00;;;;;;;26.73;44.54;98456.42;433762;1267;108900;-43
2022/07/14 14:00:23;;;;;;;5.50;4.30;;;;;;;26.94;45.09;98455.54;433861;1268;110931;-42
2022/07/14 14:10:30;;;;;;;4.50;4.10;;;;;;;26.83;45.04;98450.40;433666;1268;108792;-42
2022/07/14 14:20:43;;;;;;;9.10;3.70;;;;;;;26.68;45.29;98443.50;433883;1267;96610;-43
2022/07/14 14:30:51;;;;;;;4.00;3.60;;;;;;;26.72;45.18;98430.42;433872;1268;108608;-43
2022/07/14 14:40:58;;;;;;;10.10;4.30;;;;;;;26.82;45.33;98415.96;433682;1267;97919;-41
2022/07/14 14:51:06;;;;;;;4.80;4.10;;;;;;;26.93;45.35;98414.88;433067;1270;111151;-45
2022/07/14 15:01:13;;;;;;;8.20;4.50;;;;;;;26.77;45.07;98404.58;433714;1267;108858;-42
2022/07/14 15:11:21;;;;;;;4.70;4.30;;;;;;;26.70;45.09;98401.08;433683;1267;97942;-46
2022/07/14 15:21:28;;;;;;;5.70;4.80;;;;;;;26.80;45.31;98398.23;433724;1267;111196;-41
2022/07/14 15:31:36;;;;;;;12.40;4.20;;;;;;;26.58;45.65;98387.95;433583;1267;108963;-42
2022/07/14 15:41:43;;;;;;;5.90;4.30;;;;;;;26.84;45.32;98371.92;433729;1267;97922;-43
2022/07/14 15:51:51;;;;;;;4.70;3.90;;;;;;;26.75;45.28;98351.02;433676;1267;111260;-42
2022/07/14 16:01:58;;;;;;;9.30;5.10;;;;;;;26.36;45.44;98341.70;433716;1267;108870;-42
2022/07/14 16:12:05;;;;;;;7.00;4.80;;;;;;;26.14;45.93;98328.52;433560;1267;97926;-42
2022/07/14 16:22:12;;;;;;;5.50;4.00;;;;;;;26.18;45.81;98328.96;433703;1267;110075;-46
2022/07/14 16:32:25;;;;;;;9.00;5.80;;;;;;;25.82;46.19;98321.08;433468;1267;108858;-41
2022/07/14 16:42:33;;;;;;;8.60;5.00;;;;;;;25.53;46.79;98302.28;433540;1267;97904;-42
2022/07/14 16:52:41;;;;;;;11.70;5.00;;;;;;;25.34;47.21;98281.70;433790;1267;111099;-42
2022/07/14 17:02:45;;;;;;;8.30;5.30;;;;;;;25.26;47.88;98281.58;433456;1267;108990;-43
2022/07/14 17:13:14;;;;;;;9.50;5.60;;;;;;;25.11;48.02;98271.62;433566;1267;97935;-42
2022/07/14 17:23:21;;;;;;;6.30;5.30;;;;;;;25.05;48.54;98261.23;433833;1267;111034;-44
2022/07/14 17:43:35;;;;;;;5.90;5.10;;;;;;;24.83;49.21;98212.97;433765;1267;97929;-43
2022/07/14 17:53:42;;;;;;;10.70;5.50;;;;;;;24.62;50.20;98215.93;433722;1267;111255;-44
2022/07/14 18:04:08;;;;;;;;;;;;;;;24.31;50.98;98214.89;433248;1270;108906;-43
2022/07/14 18:14:23;;;;;;;6.50;5.30;;;;;;;24.03;51.37;98203.39;433711;1267;97055;-41
2022/07/14 18:24:30;;;;;;;9.70;5.50;;;;;;;23.73;51.90;98201.39;433774;1267;111150;-42
2022/07/14 18:34:38;;;;;;;17.50;7.00;;;;;;;23.52;52.66;98187.80;433670;1267;108225;-41
2022/07/14 19:05:19;;;;;;;13.40;11.30;;;;;;;22.93;54.41;98168.74;433716;1267;108816;-39
2022/07/14 19:15:25;;;;;;;10.80;9.80;;;;;;;22.80;54.79;98227.93;433661;1266;97993;-42
2022/07/14 19:25:33;;;;;;;14.50;9.50;;;;;;;21.82;56.95;98224.73;433707;1267;111439;-45
2022/07/14 19:35:39;;;;;;;;;;;;;;;20.74;59.39;98227.43;433636;1267;108844;-43
2022/07/14 19:45:45;;;;;;;12.10;10.00;;;;;;;20.53;60.71;98250.73;433666;1267;96952;-42
2022/07/14 19:55:52;;;;;;;13.00;10.80;;;;;;;20.43;61.53;98253.55;433519;1267;109225;-44
2022/07/14 20:05:58;;;;;;;15.10;11.00;;;;;;;20.29;62.06;98264.73;433215;1269;98022;-41
2022/07/14 20:16:06;;;;;;;19.90;10.20;;;;;;;20.13;62.77;98311.36;433450;1267;111081;-43
2022/07/14 20:26:13;;;;;;;13.70;10.90;;;;;;;19.84;63.72;98297.48;433332;1267;107284;-41
2022/07/14 20:56:56;;;;;;;19.40;12.70;;;;;;;19.59;66.11;98252.31;433307;1269;96676;-43
2022/07/14 21:07:03;;;;;;;14.10;12.60;;;;;;;19.52;66.91;98223.95;433602;1267;111047;-41
2022/07/14 21:17:11;;;;;;;14.00;12.60;;;;;;;19.59;67.39;98252.19;433280;1269;109148;-42
2022/07/14 21:27:18;;;;;;;13.50;12.10;;;;;;;19.65;67.88;98263.04;433622;1267;98208;-41
2022/07/14 21:37:26;;;;;;;14.80;13.40;;;;;;;19.79;68.17;98264.15;433725;1267;108986;-42
2022/07/14 21:47:33;;;;;;;17.40;13.90;;;;;;;19.82;68.53;98276.97;433691;1267;96967;-45
2022/07/14 21:57:40;;;;;;;17.10;13.10;;;;;;;19.79;68.65;98250.33;433615;1267;110928;-41
2022/07/14 22:07:48;;;;;;;13.20;12.00;;;;;;;19.83;68.88;98246.05;433509;1267;108810;-45
2022/07/14 22:17:56;;;;;;;15.10;13.20;;;;;;;19.75;68.93;98263.48;433587;1267;97906;-41
2022/07/14 22:28:21;;;;;;;;;;;;;;;19.62;69.25;98238.36;433419;1270;108911;-43
2022/07/14 22:38:29;;;;;;;12.00;11.00;;;;;;;19.60;69.38;98236.70;433486;1267;97207;-42
2022/07/14 22:48:36;;;;;;;14.10;11.40;;;;;;;19.45;69.57;98240.16;433472;1267;111048;-41
2022/07/14 22:58:44;;;;;;;12.70;10.70;;;;;;;19.27;69.59;98234.43;433518;1267;108677;-42
2022/07/14 23:18:58;;;;;;;12.40;10.90;;;;;;;19.18;70.07;98235.65;433456;1267;107905;-45
2022/07/14 23:29:06;;;;;;;10.10;8.70;;;;;;;19.02;70.23;98249.70;433485;1266;97900;-42
2022/07/14 23:39:13;;;;;;;10.30;8.90;;;;;;;19.10;70.53;98252.84;433601;1267;109997;-40
2022/07/14 23:49:20;;;;;;;11.90;10.00;;;;;;;19.10;70.53;98268.60;433603;1267;108843;-41
2022/07/14 23:59:28;;;;;;;11.30;10.20;;;;;;;18.78;70.40;98273.45;433467;1267;98057;-44
